Time;durP1;ratioP1;P1;durP2;ratioP2;P2;SDS_P1;SDS_P2;PMS_P1;PMS_P2;Temp;Humidity;BMP_temperature;BMP_pressure;BME280_temperature;BME280_humidity;BME280_pressure;Samples;Min_cycle;Max_cycle;Signal;HPM_P1;HPM_P2
2023/11/20 00:00:26;;;;;;;7.03;1.98;;;13.40;91.80;;;;;;5018716;28;20033;-80
2023/11/20 00:02:52;;;;;;;7.45;1.60;;;13.40;91.80;;;;;;5018398;28;20075;-80
2023/11/20 00:05:19;;;;;;;8.05;1.98;;;13.40;91.80;;;;;;5036592;28;20034;-79
2023/11/20 00:07:46;;;;;;;7.05;1.92;;;13.40;91.80;;;;;;5025467;28;20495;-79
2023/11/20 00:10:11;;;;;;;6.57;1.83;;;13.40;91.80;;;;;;5036173;28;20029;-79
2023/11/20 00:12:37;;;;;;;5.35;1.50;;;13.40;91.80;;;;;;5018452;28;20048;-79
2023/11/20 00:15:03;;;;;;;10.35;2.10;;;13.40;91.80;;;;;;5018453;28;20021;-79
2023/11/20 00:17:28;;;;;;;5.65;1.90;;;13.40;91.80;;;;;;5017888;28;20446;-79
2023/11/20 00:19:54;;;;;;;4.65;1.80;;;13.40;91.80;;;;;;5018071;28;20021;-79
2023/11/20 00:22:20;;;;;;;7.67;1.67;;;13.40;91.80;;;;;;5018011;28;20021;-79
2023/11/20 00:24:45;;;;;;;5.32;1.20;;;13.40;91.80;;;;;;5018316;28;20430;-79
2023/11/20 00:27:11;;;;;;;5.82;1.52;;;13.40;91.80;;;;;;5017691;28;20120;-78
2023/11/20 00:29:39;;;;;;;6.22;1.48;;;13.40;91.80;;;;;;5018269;28;20052;-79
2023/11/20 00:32:05;;;;;;;6.55;1.65;;;13.40;91.80;;;;;;5017847;28;20027;-79
2023/11/20 00:34:31;;;;;;;7.55;2.20;;;13.40;91.80;;;;;;5018219;28;20156;-79
2023/11/20 00:36:57;;;;;;;4.72;1.48;;;13.40;91.80;;;;;;5017334;28;20049;-79
2023/11/20 00:39:22;;;;;;;4.82;1.40;;;13.40;91.80;;;;;;5035442;28;20029;-79
2023/11/20 00:41:48;;;;;;;6.40;1.40;;;13.40;91.80;;;;;;5018055;28;20136;-79
2023/11/20 00:44:13;;;;;;;5.80;1.40;;;13.40;91.80;;;;;;5017321;28;20043;-79
2023/11/20 00:46:39;;;;;;;5.88;1.42;;;13.40;91.80;;;;;;5034068;28;20399;-79
2023/11/20 00:49:05;;;;;;;6.05;1.50;;;13.40;91.80;;;;;;5035081;28;20041;-79
2023/11/20 00:51:31;;;;;;;5.50;1.55;;;13.40;91.80;;;;;;5017625;28;20480;-79
2023/11/20 00:53:57;;;;;;;5.53;1.63;;;13.30;91.70;;;;;;5017690;28;20103;-79
2023/11/20 00:56:23;;;;;;;5.55;1.20;;;13.40;91.80;;;;;;5017341;28;20500;-78
2023/11/20 00:58:49;;;;;;;5.45;1.42;;;13.30;91.70;;;;;;5034282;28;20061;-79
2023/11/20 01:01:15;;;;;;;6.03;1.70;;;13.30;91.80;;;;;;5017480;28;20080;-79
2023/11/20 01:03:40;;;;;;;4.78;1.30;;;13.30;91.70;;;;;;5017352;28;20029;-79
2023/11/20 01:06:08;;;;;;;7.03;1.45;;;13.30;91.70;;;;;;5035158;28;20093;-80
2023/11/20 01:08:34;;;;;;;3.88;1.30;;;13.30;91.70;;;;;;5033464;28;20052;-79
2023/11/20 01:11:00;;;;;;;6.07;1.42;;;13.30;91.70;;;;;;5035242;28;20017;-79
2023/11/20 01:13:26;;;;;;;5.57;1.90;;;13.30;91.70;;;;;;5035047;28;20492;-80
2023/11/20 01:15:51;;;;;;;6.57;1.65;;;13.30;91.70;;;;;;5035219;28;20578;-79
2023/11/20 01:18:17;;;;;;;3.17;1.15;;;13.30;91.70;;;;;;5016785;28;20035;-80
2023/11/20 01:20:46;;;;;;;6.53;1.30;;;13.40;91.70;;;;;;5017092;28;20377;-80
2023/11/20 01:23:11;;;;;;;3.85;1.23;;;13.30;91.70;;;;;;5033418;28;20036;-79
2023/11/20 01:25:37;;;;;;;3.55;1.23;;;13.30;91.70;;;;;;5033395;28;20763;-80
2023/11/20 01:28:02;;;;;;;4.35;1.27;;;13.30;91.70;;;;;;5016713;28;20037;-80
2023/11/20 01:30:28;;;;;;;5.82;1.40;;;13.40;91.70;;;;;;5016787;28;20037;-79
2023/11/20 01:32:54;;;;;;;4.95;1.40;;;13.30;91.70;;;;;;5034756;28;20030;-79
2023/11/20 01:35:20;;;;;;;4.68;1.25;;;13.30;91.70;;;;;;5016965;28;20029;-78
2023/11/20 01:37:46;;;;;;;4.43;1.30;;;13.30;91.70;;;;;;5034285;28;20017;-79
2023/11/20 01:40:15;;;;;;;5.38;1.20;;;13.30;91.70;;;;;;5016660;28;20018;-80
2023/11/20 01:42:40;;;;;;;5.47;1.90;;;13.30;91.70;;;;;;5016685;28;20493;-79
2023/11/20 01:45:08;;;;;;;2.97;1.10;;;13.30;91.60;;;;;;5016561;28;20116;-80
2023/11/20 01:47:35;;;;;;;4.55;1.02;;;13.30;91.60;;;;;;5016225;28;20439;-80
2023/11/20 01:50:01;;;;;;;4.45;1.40;;;13.30;91.60;;;;;;5016462;28;20368;-80
2023/11/20 01:52:27;;;;;;;4.38;1.20;;;13.30;91.70;;;;;;5016211;28;20036;-79
2023/11/20 01:54:53;;;;;;;5.32;1.40;;;13.30;91.70;;;;;;5016405;28;20025;-80
2023/11/20 01:57:19;;;;;;;3.08;1.20;;;13.30;91.70;;;;;;5016102;28;20705;-80
2023/11/20 01:59:45;;;;;;;3.65;1.13;;;13.30;91.70;;;;;;5016234;28;20018;-79
2023/11/20 02:02:11;;;;;;;5.07;1.55;;;13.30;91.70;;;;;;5016288;28;20085;-79
2023/11/20 02:04:39;;;;;;;4.10;1.13;;;13.30;91.70;;;;;;5034049;28;20036;-79
2023/11/20 02:07:08;;;;;;;3.72;1.20;;;13.30;91.60;;;;;;5016168;28;20071;-79
2023/11/20 02:09:35;;;;;;;5.38;1.20;;;13.30;91.60;;;;;;5015693;28;20506;-80
2023/11/20 02:12:00;;;;;;;3.78;1.10;;;13.30;91.60;;;;;;5015572;28;20029;-79
2023/11/20 02:14:26;;;;;;;4.63;1.40;;;13.30;91.60;;;;;;5016055;28;20479;-79
2023/11/20 02:16:52;;;;;;;3.58;1.25;;;13.30;91.60;;;;;;5016032;28;20036;-80
2023/11/20 02:19:18;;;;;;;5.22;1.48;;;13.30;91.60;;;;;;5033749;28;20022;-79
2023/11/20 02:21:46;;;;;;;4.75;1.30;;;13.30;91.60;;;;;;5033903;28;20151;-79
2023/11/20 02:24:13;;;;;;;3.97;1.10;;;13.30;91.60;;;;;;5015522;28;20029;-80
2023/11/20 02:26:52;;;;;;;3.10;1.13;;;13.30;91.60;;;;;;5031845;28;20026;-80
2023/11/20 02:29:20;;;;;;;4.13;1.20;;;13.30;91.60;;;;;;5032968;28;20032;-79
2023/11/20 02:31:46;;;;;;;4.95;1.35;;;13.30;91.60;;;;;;5015403;28;20502;-79
2023/11/20 02:34:11;;;;;;;2.22;0.80;;;13.30;91.60;;;;;;5033318;28;20025;-80
2023/11/20 02:36:37;;;;;;;4.38;1.10;;;13.30;91.60;;;;;;5015622;28;20112;-80
2023/11/20 02:39:03;;;;;;;3.45;1.10;;;13.30;91.60;;;;;;5015690;28;20120;-79
2023/11/20 02:41:29;;;;;;;2.58;1.00;;;13.30;91.60;;;;;;5015904;28;20021;-79
2023/11/20 02:43:55;;;;;;;5.32;1.17;;;13.30;91.60;;;;;;5033176;28;20025;-80
2023/11/20 02:46:21;;;;;;;3.60;1.10;;;13.30;91.60;;;;;;5033263;28;20026;-79
2023/11/20 02:48:47;;;;;;;4.45;1.10;;;13.30;91.60;;;;;;5031637;28;20140;-79
2023/11/20 02:51:12;;;;;;;3.80;0.95;;;13.30;91.60;;;;;;5015402;28;20028;-79
2023/11/20 02:53:38;;;;;;;3.67;1.10;;;13.30;91.60;;;;;;5015470;28;20040;-79
2023/11/20 02:56:05;;;;;;;3.60;1.00;;;13.20;91.60;;;;;;5030327;28;20087;-79
2023/11/20 02:58:30;;;;;;;3.33;0.88;;;13.30;91.60;;;;;;5032757;28;20097;-79
2023/11/20 03:00:56;;;;;;;2.97;1.15;;;13.30;91.60;;;;;;5015053;28;20144;-79
2023/11/20 03:03:21;;;;;;;2.75;1.00;;;13.20;91.60;;;;;;5015320;28;20064;-80
2023/11/20 03:05:47;;;;;;;3.25;0.80;;;13.20;91.60;;;;;;5014900;28;20028;-79
2023/11/20 03:08:12;;;;;;;2.20;0.90;;;13.30;91.60;;;;;;5014578;28;20028;-80
2023/11/20 03:10:41;;;;;;;2.63;0.90;;;13.20;91.60;;;;;;5015109;28;20029;-80
2023/11/20 03:13:07;;;;;;;3.45;0.80;;;13.20;91.60;;;;;;5032746;28;20030;-79
2023/11/20 03:15:33;;;;;;;2.15;0.90;;;13.20;91.60;;;;;;5012691;28;20142;-79
2023/11/20 03:17:58;;;;;;;4.05;1.10;;;13.30;91.60;;;;;;5014672;28;20116;-79
2023/11/20 03:20:24;;;;;;;3.05;1.00;;;13.30;91.60;;;;;;5015057;28;20048;-81
2023/11/20 03:22:50;;;;;;;2.90;1.08;;;13.20;91.60;;;;;;5032544;28;20067;-79
2023/11/20 03:25:15;;;;;;;3.03;1.08;;;13.20;91.60;;;;;;5014800;28;20058;-80
2023/11/20 03:27:42;;;;;;;3.63;1.10;;;13.30;91.60;;;;;;5032190;28;20042;-79
2023/11/20 03:30:09;;;;;;;3.22;0.95;;;13.30;91.60;;;;;;5032518;28;20053;-80
2023/11/20 03:32:36;;;;;;;2.70;0.90;;;13.30;91.60;;;;;;5014854;28;20026;-78
2023/11/20 03:35:05;;;;;;;2.13;0.85;;;13.20;91.60;;;;;;5014937;28;20439;-79
2023/11/20 03:37:31;;;;;;;2.25;0.80;;;13.20;91.60;;;;;;5014548;28;20407;-79
2023/11/20 03:39:56;;;;;;;3.05;0.90;;;13.30;91.60;;;;;;5032704;28;20431;-79
2023/11/20 03:42:22;;;;;;;1.38;0.80;;;13.20;91.60;;;;;;5014801;28;20018;-79
2023/11/20 03:44:48;;;;;;;2.97;1.13;;;13.20;91.60;;;;;;5014916;28;20026;-79
2023/11/20 03:47:13;;;;;;;1.48;0.70;;;13.20;91.60;;;;;;5014527;28;20021;-80
2023/11/20 03:49:39;;;;;;;3.35;0.85;;;13.20;91.60;;;;;;5014875;28;20025;-79
2023/11/20 03:52:05;;;;;;;2.55;0.93;;;13.20;91.60;;;;;;5015031;28;20116;-79
2023/11/20 03:54:31;;;;;;;3.50;1.02;;;13.20;91.60;;;;;;5014828;28;20026;-80
2023/11/20 03:56:57;;;;;;;4.45;1.30;;;13.20;91.70;;;;;;5014529;28;20035;-78
2023/11/20 03:59:22;;;;;;;3.33;0.85;;;13.20;91.60;;;;;;5014597;28;20076;-79
2023/11/20 04:01:49;;;;;;;2.72;1.10;;;13.20;91.60;;;;;;5014548;28;20033;-79
2023/11/20 04:04:15;;;;;;;2.17;0.90;;;13.20;91.60;;;;;;5014442;28;20025;-79
2023/11/20 04:06:41;;;;;;;1.75;0.80;;;13.20;91.60;;;;;;5032321;28;20024;-80
2023/11/20 04:09:06;;;;;;;2.47;0.90;;;13.20;91.60;;;;;;5014626;28;20017;-79
2023/11/20 04:11:32;;;;;;;2.70;0.70;;;13.20;91.60;;;;;;5014796;28;20028;-79
2023/11/20 04:13:58;;;;;;;3.25;1.10;;;13.20;91.60;;;;;;5014462;28;20064;-79
2023/11/20 04:16:23;;;;;;;2.13;0.93;;;13.20;91.60;;;;;;5032366;28;20467;-79
2023/11/20 04:18:49;;;;;;;2.38;0.80;;;13.20;91.60;;;;;;5014236;28;20034;-79
2023/11/20 04:21:14;;;;;;;2.35;0.80;;;13.20;91.60;;;;;;5014475;28;20102;-79
2023/11/20 04:23:40;;;;;;;1.90;0.70;;;13.20;91.60;;;;;;5032189;28;20034;-79
2023/11/20 04:26:05;;;;;;;7.13;0.95;;;13.20;91.60;;;;;;5014299;28;20112;-79
2023/11/20 04:28:31;;;;;;;3.97;1.00;;;13.20;91.60;;;;;;5028929;28;20044;-80
2023/11/20 04:30:58;;;;;;;2.28;0.82;;;13.30;91.70;;;;;;5009640;28;20502;-78
2023/11/20 04:33:25;;;;;;;2.70;0.90;;;13.20;91.70;;;;;;5028347;28;20040;-80
2023/11/20 04:35:52;;;;;;;2.83;1.00;;;13.20;91.60;;;;;;5013324;28;20380;-80
2023/11/20 04:38:18;;;;;;;2.10;0.70;;;13.20;91.60;;;;;;5006813;28;20045;-80
2023/11/20 04:40:43;;;;;;;1.80;0.70;;;13.20;91.60;;;;;;5015572;28;20518;-81
2023/11/20 04:43:10;;;;;;;3.53;0.90;;;13.20;91.60;;;;;;4999636;28;20045;-81
2023/11/20 04:45:35;;;;;;;1.20;0.73;;;13.20;91.60;;;;;;5015396;28;20483;-77
2023/11/20 04:48:01;;;;;;;3.17;0.95;;;13.20;91.60;;;;;;5015062;28;20029;-81
2023/11/20 04:50:26;;;;;;;2.47;0.80;;;13.20;91.60;;;;;;5032585;28;20128;-79
2023/11/20 04:52:52;;;;;;;1.50;0.80;;;13.20;91.60;;;;;;5015242;28;20035;-79
2023/11/20 04:55:17;;;;;;;1.77;0.80;;;13.20;91.60;;;;;;5032175;28;20034;-79
2023/11/20 04:57:43;;;;;;;1.95;0.80;;;13.10;91.60;;;;;;5004570;28;20029;-81
2023/11/20 05:00:11;;;;;;;1.02;0.68;;;13.20;91.60;;;;;;5028271;28;20476;-79
2023/11/20 05:02:37;;;;;;;1.98;0.73;;;13.20;91.60;;;;;;5039630;28;20025;-80
2023/11/20 05:05:02;;;;;;;1.65;0.73;;;13.20;91.70;;;;;;5031814;28;20025;-81
2023/11/20 05:07:29;;;;;;;2.35;0.82;;;13.20;91.70;;;;;;5032457;28;20120;-83
2023/11/20 05:09:54;;;;;;;1.73;0.70;;;13.20;91.70;;;;;;5028962;28;20037;-79
2023/11/20 05:12:20;;;;;;;1.90;0.70;;;13.20;91.70;;;;;;5030622;28;20029;-78
2023/11/20 05:14:46;;;;;;;2.15;0.70;;;13.20;91.60;;;;;;5022835;28;20036;-79
2023/11/20 05:17:16;;;;;;;1.75;0.93;;;13.20;91.70;;;;;;5029191;28;20041;-81
2023/11/20 05:19:42;;;;;;;2.58;0.82;;;13.20;91.60;;;;;;5014117;28;20025;-79
2023/11/20 05:22:07;;;;;;;1.85;0.70;;;13.20;91.70;;;;;;5014423;28;20112;-81
2023/11/20 05:24:34;;;;;;;3.13;0.80;;;13.20;91.70;;;;;;5012404;28;20415;-78
2023/11/20 05:27:00;;;;;;;1.27;0.55;;;13.20;91.60;;;;;;5030466;28;20036;-80
2023/11/20 05:29:25;;;;;;;2.10;0.77;;;13.20;91.70;;;;;;5014894;28;20022;-79
2023/11/20 05:31:51;;;;;;;2.42;0.73;;;13.20;91.60;;;;;;5032216;28;20029;-80
2023/11/20 05:34:16;;;;;;;2.10;0.80;;;13.20;91.70;;;;;;5032237;28;20041;-78
2023/11/20 05:36:42;;;;;;;2.30;0.93;;;13.20;91.60;;;;;;5032510;28;20029;-80
2023/11/20 05:39:08;;;;;;;2.92;0.88;;;13.20;91.60;;;;;;5014355;28;20935;-78
2023/11/20 05:41:34;;;;;;;1.65;0.90;;;13.20;91.60;;;;;;5014546;28;20033;-79
2023/11/20 05:43:59;;;;;;;2.15;0.80;;;13.20;91.70;;;;;;5014265;28;20458;-78
2023/11/20 05:46:25;;;;;;;1.90;0.95;;;13.20;91.60;;;;;;5012905;28;20045;-79
2023/11/20 05:48:50;;;;;;;1.60;0.65;;;13.20;91.60;;;;;;5032186;28;20029;-79
2023/11/20 05:51:19;;;;;;;2.05;0.70;;;13.20;91.70;;;;;;5032342;28;20057;-81
2023/11/20 05:53:44;;;;;;;1.50;0.70;;;13.20;91.60;;;;;;5014184;28;20028;-79
2023/11/20 05:56:11;;;;;;;1.45;0.60;;;13.20;91.90;;;;;;5032178;28;20391;-79
2023/11/20 05:58:36;;;;;;;2.65;0.80;;;13.20;91.70;;;;;;5014823;28;20033;-78
2023/11/20 06:01:02;;;;;;;1.60;0.70;;;13.20;91.60;;;;;;5014064;28;20654;-81
2023/11/20 06:03:27;;;;;;;1.70;0.77;;;13.20;91.60;;;;;;5032081;28;20048;-82
2023/11/20 06:05:53;;;;;;;2.17;0.85;;;13.20;91.60;;;;;;5014253;28;20022;-81
2023/11/20 06:08:18;;;;;;;1.77;0.90;;;13.20;91.60;;;;;;5014140;28;20271;-78
2023/11/20 06:10:44;;;;;;;0.95;0.70;;;13.20;91.60;;;;;;5030647;28;20080;-80
2023/11/20 06:13:09;;;;;;;2.28;0.82;;;13.20;91.60;;;;;;5030297;28;20033;-80
2023/11/20 06:15:35;;;;;;;2.58;0.85;;;13.20;91.70;;;;;;5029532;28;20567;-79
2023/11/20 06:18:00;;;;;;;3.33;0.93;;;13.20;91.70;;;;;;5031202;28;20080;-80
2023/11/20 06:20:26;;;;;;;1.83;0.80;;;13.20;91.60;;;;;;5029189;28;20033;-77
2023/11/20 06:22:51;;;;;;;1.33;0.73;;;13.20;91.60;;;;;;5030109;28;20029;-82
2023/11/20 06:25:17;;;;;;;2.03;0.80;;;13.20;91.60;;;;;;5031322;28;20778;-81
2023/11/20 06:27:43;;;;;;;1.55;0.70;;;13.20;91.60;;;;;;5032108;28;20032;-83
2023/11/20 06:30:10;;;;;;;2.97;0.82;;;13.20;91.60;;;;;;5031913;28;20026;-82
2023/11/20 06:32:36;;;;;;;2.38;0.95;;;13.20;91.60;;;;;;5016668;28;20028;-79
2023/11/20 06:35:02;;;;;;;2.10;0.82;;;13.20;91.60;;;;;;5032149;28;20025;-80
2023/11/20 06:37:28;;;;;;;2.08;0.75;;;13.20;91.60;;;;;;5014573;28;20036;-79
2023/11/20 06:39:54;;;;;;;2.13;0.98;;;13.20;91.60;;;;;;5031996;28;20403;-78
2023/11/20 06:42:19;;;;;;;2.17;0.75;;;13.20;91.60;;;;;;5015095;28;20026;-80
2023/11/20 06:44:45;;;;;;;2.60;0.88;;;13.20;91.70;;;;;;5015246;28;20026;-79
2023/11/20 06:47:10;;;;;;;2.78;1.00;;;13.20;91.60;;;;;;5014887;28;20029;-79
2023/11/20 06:49:36;;;;;;;2.92;1.02;;;13.20;91.60;;;;;;5015303;28;20439;-79
2023/11/20 06:52:03;;;;;;;3.78;1.05;;;13.20;91.60;;;;;;5015209;28;20025;-79
2023/11/20 06:54:28;;;;;;;2.15;0.82;;;13.20;91.60;;;;;;5032934;28;20510;-80
2023/11/20 06:56:54;;;;;;;2.92;1.02;;;13.20;91.60;;;;;;5032708;28;20038;-79
2023/11/20 06:59:20;;;;;;;1.75;0.70;;;13.20;91.60;;;;;;5015337;28;20491;-80
2023/11/20 07:01:45;;;;;;;3.65;0.85;;;13.20;91.70;;;;;;5030332;28;20113;-79
2023/11/20 07:04:13;;;;;;;1.92;0.90;;;13.20;91.60;;;;;;5029698;28;20129;-79
2023/11/20 07:06:42;;;;;;;3.25;1.30;;;13.20;91.60;;;;;;5032710;28;20025;-79
2023/11/20 07:09:13;;;;;;;2.15;0.90;;;13.20;91.60;;;;;;5032921;28;20021;-78
2023/11/20 07:11:40;;;;;;;;;;;13.20;91.60;;;;;;5033532;28;20017;-79
2023/11/20 07:14:08;;;;;;;2.25;0.90;;;13.20;91.60;;;;;;5015171;28;19995;-79
2023/11/20 07:16:34;;;;;;;2.17;0.88;;;13.20;91.60;;;;;;5014734;28;20457;-79
2023/11/20 07:19:00;;;;;;;2.00;0.80;;;13.20;91.70;;;;;;5015178;28;20123;-79
2023/11/20 07:21:25;;;;;;;2.65;0.85;;;13.20;91.60;;;;;;5014955;28;20053;-79
2023/11/20 07:23:50;;;;;;;1.20;0.80;;;13.20;91.60;;;;;;5032560;28;20112;-80
2023/11/20 07:26:19;;;;;;;1.42;0.75;;;13.20;91.60;;;;;;5014890;28;20021;-79
2023/11/20 07:28:46;;;;;;;2.53;0.88;;;13.20;91.60;;;;;;5014304;28;20427;-79
2023/11/20 07:31:12;;;;;;;2.58;0.85;;;13.20;91.70;;;;;;5015199;28;20028;-80
2023/11/20 07:33:38;;;;;;;1.08;0.70;;;13.20;91.70;;;;;;5014278;28;20060;-79
2023/11/20 07:36:04;;;;;;;1.33;0.80;;;13.20;91.70;;;;;;5032676;28;20111;-78
2023/11/20 07:38:30;;;;;;;3.33;0.90;;;13.20;91.70;;;;;;5031894;28;20030;-79
2023/11/20 07:40:55;;;;;;;2.42;0.80;;;13.20;91.60;;;;;;5032451;28;20101;-79
2023/11/20 07:43:21;;;;;;;3.72;1.10;;;13.20;91.60;;;;;;5032224;28;20129;-80
2023/11/20 07:45:46;;;;;;;1.88;0.70;;;13.20;91.60;;;;;;5014686;28;20026;-80
2023/11/20 07:48:12;;;;;;;3.20;0.90;;;13.20;91.90;;;;;;5014464;28;20148;-79
2023/11/20 07:50:39;;;;;;;2.05;0.80;;;13.20;91.60;;;;;;5014859;28;20022;-79
2023/11/20 07:53:04;;;;;;;1.77;0.77;;;13.20;91.60;;;;;;5014778;28;20075;-79
2023/11/20 07:55:30;;;;;;;1.85;0.80;;;13.20;91.60;;;;;;5014634;28;20076;-79
2023/11/20 07:57:55;;;;;;;1.67;0.90;;;13.20;91.60;;;;;;5031937;28;20399;-79
2023/11/20 08:00:21;;;;;;;1.38;0.88;;;13.10;91.60;;;;;;5014610;28;20022;-80
2023/11/20 08:02:47;;;;;;;2.33;0.80;;;13.20;91.60;;;;;;5014572;28;20057;-79
2023/11/20 08:05:12;;;;;;;2.28;1.10;;;13.20;91.60;;;;;;5014890;28;20018;-79
2023/11/20 08:07:38;;;;;;;1.05;0.70;;;13.20;91.90;;;;;;5014186;28;20017;-79
2023/11/20 08:10:04;;;;;;;1.52;0.68;;;13.20;91.60;;;;;;5017520;28;20029;-79
2023/11/20 08:12:30;;;;;;;1.52;0.70;;;13.20;91.60;;;;;;5035853;28;20535;-80
2023/11/20 08:14:57;;;;;;;2.05;0.80;;;13.20;91.60;;;;;;5018476;28;20168;-79
2023/11/20 08:17:23;;;;;;;1.42;0.70;;;13.20;91.60;;;;;;5018154;28;20167;-79
2023/11/20 08:19:49;;;;;;;2.67;0.85;;;13.20;91.60;;;;;;5018227;28;20484;-80
2023/11/20 08:22:15;;;;;;;4.70;1.00;;;13.20;91.60;;;;;;5035770;28;20029;-78
2023/11/20 08:24:43;;;;;;;2.42;0.90;;;13.20;91.60;;;;;;5017884;28;20026;-79
2023/11/20 08:27:08;;;;;;;2.38;1.05;;;13.20;91.60;;;;;;5035549;28;20701;-79
2023/11/20 08:29:34;;;;;;;2.03;0.80;;;13.20;91.60;;;;;;5018055;28;20025;-79
2023/11/20 08:31:59;;;;;;;1.83;0.80;;;13.20;91.60;;;;;;5017876;28;20079;-79
2023/11/20 08:34:26;;;;;;;3.03;1.00;;;13.20;91.60;;;;;;5017311;28;20559;-79
2023/11/20 08:36:52;;;;;;;2.30;0.93;;;13.10;91.60;;;;;;5017092;28;20029;-80
2023/11/20 08:39:21;;;;;;;2.17;0.90;;;13.10;91.60;;;;;;5017600;28;20048;-79
2023/11/20 08:41:47;;;;;;;2.15;0.90;;;13.10;91.60;;;;;;5017999;28;20434;-79
2023/11/20 08:44:12;;;;;;;2.35;0.73;;;13.20;91.60;;;;;;5017719;28;20031;-79
2023/11/20 08:46:38;;;;;;;1.85;0.70;;;13.10;91.60;;;;;;5035440;28;20083;-80
2023/11/20 08:49:06;;;;;;;2.30;0.90;;;13.20;91.60;;;;;;5017666;28;20026;-79
2023/11/20 08:51:32;;;;;;;1.63;0.80;;;13.20;91.60;;;;;;5017472;28;20075;-79
2023/11/20 08:53:58;;;;;;;1.23;0.70;;;13.20;91.60;;;;;;5035452;28;20029;-79
2023/11/20 08:56:25;;;;;;;1.58;0.75;;;13.20;91.60;;;;;;5017373;28;20192;-79
2023/11/20 08:58:50;;;;;;;1.95;0.80;;;13.20;91.60;;;;;;5017242;28;20036;-80
2023/11/20 09:01:16;;;;;;;1.88;0.85;;;13.10;91.60;;;;;;5035141;28;20026;-79
2023/11/20 09:03:41;;;;;;;2.38;0.90;;;13.20;91.60;;;;;;5035052;28;20029;-80
2023/11/20 09:06:07;;;;;;;2.00;0.80;;;13.20;91.60;;;;;;5017345;28;20468;-79
2023/11/20 09:08:33;;;;;;;1.88;0.80;;;13.20;91.60;;;;;;5017254;28;20112;-79
2023/11/20 09:10:58;;;;;;;1.02;0.77;;;13.20;91.60;;;;;;5016950;28;20026;-79
2023/11/20 09:13:24;;;;;;;2.22;0.90;;;13.20;91.60;;;;;;5034682;28;20439;-81
2023/11/20 09:15:49;;;;;;;2.80;0.80;;;13.20;91.60;;;;;;5016958;28;20033;-79
2023/11/20 09:18:15;;;;;;;1.15;0.80;;;13.20;91.60;;;;;;5033170;28;20107;-79
2023/11/20 09:20:40;;;;;;;2.25;0.80;;;13.20;91.60;;;;;;5016768;28;20021;-80
2023/11/20 09:23:06;;;;;;;2.17;0.80;;;13.10;91.60;;;;;;5017082;28;20034;-79
2023/11/20 09:25:31;;;;;;;1.67;0.70;;;13.20;91.60;;;;;;5016923;28;20029;-79
2023/11/20 09:27:57;;;;;;;1.65;0.90;;;13.20;91.60;;;;;;5016387;28;20515;-79
2023/11/20 09:30:23;;;;;;;1.92;0.80;;;13.10;91.60;;;;;;5016946;28;20037;-80
2023/11/20 09:32:48;;;;;;;1.63;0.70;;;13.20;91.60;;;;;;5016740;28;20032;-78
2023/11/20 09:35:16;;;;;;;1.83;0.80;;;13.20;91.60;;;;;;5016391;28;20123;-79
2023/11/20 09:37:42;;;;;;;2.63;0.90;;;13.20;91.60;;;;;;5033076;28;20017;-79
2023/11/20 09:40:09;;;;;;;2.22;0.80;;;13.20;91.60;;;;;;5016284;28;20018;-79
2023/11/20 09:42:35;;;;;;;1.08;0.70;;;13.20;91.90;;;;;;5016681;28;20025;-79
2023/11/20 09:45:04;;;;;;;1.90;0.80;;;13.10;91.60;;;;;;5016459;28;20087;-80
2023/11/20 09:47:30;;;;;;;1.00;0.80;;;13.20;91.60;;;;;;5034159;28;20515;-79
2023/11/20 09:49:56;;;;;;;2.47;0.88;;;13.20;91.60;;;;;;5016379;28;20032;-80
2023/11/20 09:52:25;;;;;;;1.88;0.70;;;13.10;91.60;;;;;;5016431;28;20029;-79
2023/11/20 09:54:55;;;;;;;2.10;0.93;;;13.20;91.60;;;;;;5034050;28;20040;-79
2023/11/20 09:57:25;;;;;;;1.88;0.80;;;13.20;91.70;;;;;;5034305;28;20026;-79
2023/11/20 09:59:50;;;;;;;2.65;0.88;;;13.20;91.70;;;;;;5034064;28;20028;-80
2023/11/20 10:02:17;;;;;;;2.10;0.95;;;13.20;91.70;;;;;;5034177;28;20025;-79
2023/11/20 10:04:44;;;;;;;1.55;0.98;;;13.10;91.60;;;;;;5033914;28;20036;-79
2023/11/20 10:07:12;;;;;;;2.40;1.00;;;13.20;91.70;;;;;;5016170;28;20075;-79
2023/11/20 10:09:40;;;;;;;2.15;0.80;;;13.20;91.70;;;;;;5016046;28;20032;-79
2023/11/20 10:12:08;;;;;;;2.67;0.95;;;13.20;91.70;;;;;;5016338;28;20025;-80
2023/11/20 10:14:33;;;;;;;1.75;0.90;;;13.20;91.70;;;;;;5015912;28;20115;-79
2023/11/20 10:16:59;;;;;;;2.55;1.00;;;13.20;91.70;;;;;;5015981;28;20061;-79
2023/11/20 10:19:25;;;;;;;2.13;0.90;;;13.20;91.70;;;;;;5016020;28;20396;-79
2023/11/20 10:21:51;;;;;;;1.27;0.77;;;13.20;91.70;;;;;;5033690;28;20021;-79
2023/11/20 10:24:17;;;;;;;2.65;1.10;;;13.20;91.70;;;;;;5015891;28;20140;-79
2023/11/20 10:26:45;;;;;;;2.22;1.05;;;13.20;91.70;;;;;;5033440;28;20113;-79
2023/11/20 10:29:11;;;;;;;1.02;0.80;;;13.20;91.70;;;;;;5015707;28;20025;-79
2023/11/20 10:31:43;;;;;;;2.10;0.85;;;13.20;91.70;;;;;;5015400;28;20120;-79
2023/11/20 10:34:09;;;;;;;2.65;1.05;;;13.20;91.70;;;;;;5015239;28;20091;-79
2023/11/20 10:36:36;;;;;;;3.17;1.00;;;13.20;91.60;;;;;;5031924;28;20487;-80
2023/11/20 10:39:02;;;;;;;1.40;0.90;;;13.20;91.70;;;;;;5015522;28;20033;-79
2023/11/20 10:41:32;;;;;;;2.05;0.93;;;13.20;91.60;;;;;;5015572;28;20124;-80
2023/11/20 10:43:59;;;;;;;1.83;0.90;;;13.20;91.60;;;;;;5015796;28;20092;-80
2023/11/20 10:46:28;;;;;;;2.05;0.90;;;13.20;91.70;;;;;;5015398;28;20033;-80
2023/11/20 10:48:55;;;;;;;2.45;1.05;;;13.20;91.70;;;;;;5015441;28;20368;-80
2023/11/20 10:51:23;;;;;;;2.03;0.80;;;13.20;91.70;;;;;;5032930;28;20033;-79
2023/11/20 10:54:04;;;;;;;1.40;0.75;;;13.20;91.60;;;;;;5015259;28;20468;-79
2023/11/20 10:56:32;;;;;;;2.75;1.00;;;13.20;91.60;;;;;;5032561;28;20116;-78
2023/11/20 10:59:01;;;;;;;2.92;1.00;;;13.20;91.60;;;;;;5015201;28;20031;-79
2023/11/20 11:01:30;;;;;;;2.42;1.15;;;13.20;91.60;;;;;;5014901;28;20025;-80
2023/11/20 11:03:57;;;;;;;1.80;1.00;;;13.20;91.60;;;;;;5015109;28;20021;-79
2023/11/20 11:06:24;;;;;;;2.03;0.85;;;13.20;91.60;;;;;;5015139;28;20029;-79
2023/11/20 11:08:51;;;;;;;2.38;1.05;;;13.20;91.60;;;;;;5014827;28;20121;-80
2023/11/20 11:11:18;;;;;;;2.60;0.80;;;13.20;91.50;;;;;;5015140;28;20545;-80
2023/11/20 11:13:45;;;;;;;1.92;0.82;;;13.30;91.50;;;;;;5015206;28;20040;-79
2023/11/20 11:16:27;;;;;;;2.58;0.90;;;13.30;91.40;;;;;;5033088;28;20060;-79
2023/11/20 11:19:01;;;;;;;2.70;0.82;;;13.30;91.40;;;;;;5015120;28;20049;-79
2023/11/20 11:21:35;;;;;;;2.10;0.95;;;13.40;91.40;;;;;;5015308;28;20029;-79
2023/11/20 11:24:03;;;;;;;2.55;1.10;;;13.40;91.40;;;;;;5032680;28;20037;-79
2023/11/20 11:26:52;;;;;;;1.70;0.93;;;13.40;91.30;;;;;;5014910;28;20029;-79
2023/11/20 11:29:22;;;;;;;1.60;0.80;;;13.40;91.30;;;;;;5015159;28;20499;-79
2023/11/20 11:32:25;;;;;;;1.03;0.70;;;13.40;91.20;;;;;;5014914;28;20028;-79
2023/11/20 11:34:53;;;;;;;1.92;0.85;;;13.40;91.50;;;;;;5031290;28;20264;-79
2023/11/20 11:37:32;;;;;;;1.70;1.00;;;13.40;91.30;;;;;;5031035;28;20079;-80
2023/11/20 11:40:29;;;;;;;1.35;0.82;;;13.40;91.20;;;;;;5014952;28;20021;-80
2023/11/20 11:43:01;;;;;;;1.77;0.98;;;13.40;91.30;;;;;;5033865;28;20052;-81
2023/11/20 11:45:30;;;;;;;2.42;1.00;;;13.50;91.30;;;;;;5036595;28;20032;-81
2023/11/20 11:47:56;;;;;;;2.33;0.90;;;13.50;91.20;;;;;;5036063;28;20021;-79
2023/11/20 11:50:22;;;;;;;2.05;0.93;;;13.50;91.20;;;;;;5018785;28;20430;-80
2023/11/20 11:52:48;;;;;;;2.05;0.80;;;13.50;91.10;;;;;;5018819;28;20021;-79
2023/11/20 11:55:16;;;;;;;2.33;1.00;;;13.50;91.10;;;;;;5035337;28;20427;-80
2023/11/20 11:57:43;;;;;;;2.70;0.80;;;13.50;91.10;;;;;;5036001;28;20063;-80
2023/11/20 12:00:14;;;;;;;2.58;0.88;;;13.50;91.00;;;;;;5018233;28;20026;-79
2023/11/20 12:03:08;;;;;;;1.88;0.90;;;13.50;91.10;;;;;;5029444;28;20133;-80
2023/11/20 12:05:53;;;;;;;2.55;0.88;;;13.50;91.10;;;;;;5018801;28;20522;-79
2023/11/20 12:08:21;;;;;;;3.53;1.17;;;13.50;91.20;;;;;;5018419;28;20033;-80
2023/11/20 12:10:52;;;;;;;3.13;1.13;;;13.50;91.10;;;;;;5018567;28;20448;-80
2023/11/20 12:13:21;;;;;;;2.08;1.20;;;13.50;91.10;;;;;;5018276;28;20025;-79
2023/11/20 12:16:02;;;;;;;2.85;1.00;;;13.50;91.20;;;;;;5018637;28;20049;-80
2023/11/20 12:18:36;;;;;;;;;;;13.50;91.20;;;;;;5036264;28;20112;-79
2023/11/20 12:21:04;;;;;;;2.08;0.90;;;13.40;91.20;;;;;;5034962;28;20004;-80
2023/11/20 12:23:36;;;;;;;3.00;0.90;;;13.40;91.20;;;;;;5036129;28;20036;-80
2023/11/20 12:26:09;;;;;;;;;;;13.40;91.20;;;;;;5035513;28;20510;-79
2023/11/20 12:28:36;;;;;;;2.00;0.90;;;13.50;91.30;;;;;;5035696;28;19913;-80
2023/11/20 12:31:12;;;;;;;2.15;0.95;;;13.40;91.30;;;;;;5018430;28;20057;-80
2023/11/20 12:33:41;;;;;;;1.80;0.93;;;13.40;91.30;;;;;;5018110;28;20060;-80
2023/11/20 12:36:11;;;;;;;2.00;1.00;;;13.40;91.30;;;;;;5018221;28;20117;-79
2023/11/20 12:38:38;;;;;;;1.95;1.05;;;13.40;91.30;;;;;;5035327;28;20514;-80
2023/11/20 12:41:07;;;;;;;1.63;1.00;;;13.40;91.30;;;;;;5035883;28;20424;-80
2023/11/20 12:43:35;;;;;;;2.47;1.25;;;13.40;91.30;;;;;;5017994;28;20463;-80
2023/11/20 12:46:01;;;;;;;1.83;0.80;;;13.40;91.30;;;;;;5017993;28;20041;-81